sensor_id;sensor_type;location;lat;lon;timestamp;pressure;altitude;pressure_sealevel;temperature;humidity
26859;BME280;14429;48.346;16.338;2023-02-22T00:00:54;99842.84;;;14.28;51.57
26859;BME280;14429;48.346;16.338;2023-02-22T00:03:21;99838.47;;;14.27;51.51
26859;BME280;14429;48.346;16.338;2023-02-22T00:05:48;99844.66;;;14.27;51.18
26859;BME280;14429;48.346;16.338;2023-02-22T00:08:14;99839.31;;;14.16;51.37
26859;BME280;14429;48.346;16.338;2023-02-22T00:10:39;99846.13;;;14.31;50.65
26859;BME280;14429;48.346;16.338;2023-02-22T00:13:06;99846.50;;;14.27;50.76
26859;BME280;14429;48.346;16.338;2023-02-22T00:15:33;99845.63;;;14.26;50.92
26859;BME280;14429;48.346;16.338;2023-02-22T00:17:58;99842.38;;;14.23;51.63
26859;BME280;14429;48.346;16.338;2023-02-22T00:20:24;99844.06;;;14.13;52.17
26859;BME280;14429;48.346;16.338;2023-02-22T00:22:50;99844.16;;;14.22;52.31
26859;BME280;14429;48.346;16.338;2023-02-22T00:25:17;99846.50;;;14.27;51.98
26859;BME280;14429;48.346;16.338;2023-02-22T00:27:44;99840.84;;;14.40;51.16
26859;BME280;14429;48.346;16.338;2023-02-22T00:30:13;99843.28;;;14.43;50.59
26859;BME280;14429;48.346;16.338;2023-02-22T00:32:39;99843.28;;;14.43;50.49
26859;BME280;14429;48.346;16.338;2023-02-22T00:35:05;99846.97;;;14.31;50.47
26859;BME280;14429;48.346;16.338;2023-02-22T00:37:30;99845.38;;;14.40;50.25
26859;BME280;14429;48.346;16.338;2023-02-22T00:39:57;99846.00;;;14.32;50.15
26859;BME280;14429;48.346;16.338;2023-02-22T00:42:22;99834.78;;;14.28;50.86
26859;BME280;14429;48.346;16.338;2023-02-22T00:44:48;99837.63;;;14.15;51.41
26859;BME280;14429;48.346;16.338;2023-02-22T00:47:13;99839.94;;;14.20;51.91
26859;BME280;14429;48.346;16.338;2023-02-22T00:49:38;99841.16;;;14.16;52.07
26859;BME280;14429;48.346;16.338;2023-02-22T00:52:04;99843.34;;;14.11;51.78
26859;BME280;14429;48.346;16.338;2023-02-22T00:54:30;99832.59;;;14.11;51.66
26859;BME280;14429;48.346;16.338;2023-02-22T00:56:56;99839.56;;;14.13;51.17
26859;BME280;14429;48.346;16.338;2023-02-22T00:59:22;99841.78;;;14.08;51.25
26859;BME280;14429;48.346;16.338;2023-02-22T01:01:47;99836.53;;;13.85;51.68
26859;BME280;14429;48.346;16.338;2023-02-22T01:04:13;99845.34;;;13.32;54.19
26859;BME280;14429;48.346;16.338;2023-02-22T01:06:38;99840.41;;;13.60;52.56
26859;BME280;14429;48.346;16.338;2023-02-22T01:09:04;99840.13;;;13.41;53.65
26859;BME280;14429;48.346;16.338;2023-02-22T01:11:30;99842.03;;;13.28;54.65
26859;BME280;14429;48.346;16.338;2023-02-22T01:13:56;99836.69;;;13.39;54.16
26859;BME280;14429;48.346;16.338;2023-02-22T01:16:22;99836.88;;;13.59;53.64
26859;BME280;14429;48.346;16.338;2023-02-22T01:18:47;99838.44;;;13.73;52.93
26859;BME280;14429;48.346;16.338;2023-02-22T01:21:13;99833.84;;;13.85;52.45
26859;BME280;14429;48.346;16.338;2023-02-22T01:23:38;99834.31;;;13.90;51.92
26859;BME280;14429;48.346;16.338;2023-02-22T01:26:04;99827.97;;;13.80;51.97
26859;BME280;14429;48.346;16.338;2023-02-22T01:28:30;99830.88;;;13.88;51.70
26859;BME280;14429;48.346;16.338;2023-02-22T01:30:57;99827.25;;;14.00;51.08
26859;BME280;14429;48.346;16.338;2023-02-22T01:33:22;99826.28;;;13.90;51.41
26859;BME280;14429;48.346;16.338;2023-02-22T01:35:48;99824.31;;;13.81;51.80
26859;BME280;14429;48.346;16.338;2023-02-22T01:38:13;99835.28;;;13.57;53.98
26859;BME280;14429;48.346;16.338;2023-02-22T01:40:41;99834.78;;;13.52;53.97
26859;BME280;14429;48.346;16.338;2023-02-22T01:43:15;99828.22;;;13.67;53.23
26859;BME280;14429;48.346;16.338;2023-02-22T01:45:47;99825.03;;;13.83;52.34
26859;BME280;14429;48.346;16.338;2023-02-22T01:48:18;99816.53;;;14.00;51.80
26859;BME280;14429;48.346;16.338;2023-02-22T01:50:48;99819.72;;;14.05;51.18
26859;BME280;14429;48.346;16.338;2023-02-22T01:53:16;99817.97;;;14.15;50.64
26859;BME280;14429;48.346;16.338;2023-02-22T01:55:43;99820.94;;;14.12;50.54
26859;BME280;14429;48.346;16.338;2023-02-22T01:58:09;99823.25;;;13.95;51.35
26859;BME280;14429;48.346;16.338;2023-02-22T02:00:35;99820.06;;;13.90;51.42
26859;BME280;14429;48.346;16.338;2023-02-22T02:03:03;99822.13;;;13.54;53.92
26859;BME280;14429;48.346;16.338;2023-02-22T02:05:32;99831.13;;;13.53;53.30
26859;BME280;14429;48.346;16.338;2023-02-22T02:08:02;99828.66;;;13.39;54.15
26859;BME280;14429;48.346;16.338;2023-02-22T02:10:30;99826.81;;;13.29;54.78
26859;BME280;14429;48.346;16.338;2023-02-22T02:12:57;99822.22;;;13.42;53.94
26859;BME280;14429;48.346;16.338;2023-02-22T02:15:26;99822.97;;;13.65;53.40
26859;BME280;14429;48.346;16.338;2023-02-22T02:17:53;99828.22;;;13.77;52.55
26859;BME280;14429;48.346;16.338;2023-02-22T02:20:23;99811.66;;;13.73;52.43
26859;BME280;14429;48.346;16.338;2023-02-22T02:22:55;99813.63;;;13.71;52.74
26859;BME280;14429;48.346;16.338;2023-02-22T02:25:56;99808.72;;;13.86;51.62
26859;BME280;14429;48.346;16.338;2023-02-22T02:31:50;99811.66;;;14.05;50.53
26859;BME280;14429;48.346;16.338;2023-02-22T02:34:21;99808.63;;;13.99;50.85
26859;BME280;14429;48.346;16.338;2023-02-22T02:36:56;99814.59;;;14.02;51.16
26859;BME280;14429;48.346;16.338;2023-02-22T02:39:26;99806.53;;;13.91;52.12
26859;BME280;14429;48.346;16.338;2023-02-22T02:41:55;99816.53;;;14.00;51.81
26859;BME280;14429;48.346;16.338;2023-02-22T02:44:26;99809.44;;;13.77;52.64
26859;BME280;14429;48.346;16.338;2023-02-22T02:46:55;99793.63;;;13.96;51.44
26859;BME280;14429;48.346;16.338;2023-02-22T02:49:28;99802.41;;;13.98;50.99
26859;BME280;14429;48.346;16.338;2023-02-22T02:51:55;99804.84;;;14.12;50.40
26859;BME280;14429;48.346;16.338;2023-02-22T02:54:24;99800.34;;;14.02;50.54
26859;BME280;14429;48.346;16.338;2023-02-22T02:56:49;99799.31;;;13.92;51.06
26859;BME280;14429;48.346;16.338;2023-02-22T02:59:24;99798.50;;;14.02;50.36
26859;BME280;14429;48.346;16.338;2023-02-22T03:04:47;99797.16;;;13.86;51.71
26859;BME280;14429;48.346;16.338;2023-02-22T03:07:43;99801.75;;;13.30;55.84
26859;BME280;14429;48.346;16.338;2023-02-22T03:10:22;99798.50;;;13.37;54.43
26859;BME280;14429;48.346;16.338;2023-02-22T03:12:56;99805.56;;;13.71;52.21
26859;BME280;14429;48.346;16.338;2023-02-22T03:15:32;99807.50;;;13.58;52.82
26859;BME280;14429;48.346;16.338;2023-02-22T03:18:04;99792.66;;;13.75;51.63
26859;BME280;14429;48.346;16.338;2023-02-22T03:20:40;99798.09;;;13.85;50.93
26859;BME280;14429;48.346;16.338;2023-02-22T03:23:12;99807.25;;;13.93;50.44
26859;BME280;14429;48.346;16.338;2023-02-22T03:25:43;99815.06;;;13.96;50.39
26859;BME280;14429;48.346;16.338;2023-02-22T03:28:13;99807.03;;;13.85;50.75
26859;BME280;14429;48.346;16.338;2023-02-22T03:30:41;99808.50;;;13.68;51.97
26859;BME280;14429;48.346;16.338;2023-02-22T03:33:18;99809.19;;;13.80;52.05
26859;BME280;14429;48.346;16.338;2023-02-22T03:35:56;99807.38;;;13.92;51.78
26859;BME280;14429;48.346;16.338;2023-02-22T03:38:26;99804.81;;;13.90;51.40
26859;BME280;14429;48.346;16.338;2023-02-22T03:40:54;99801.16;;;13.91;51.10
26859;BME280;14429;48.346;16.338;2023-02-22T03:43:23;99798.00;;;13.86;51.35
26859;BME280;14429;48.346;16.338;2023-02-22T03:45:52;99804.59;;;14.04;51.04
26859;BME280;14429;48.346;16.338;2023-02-22T03:48:23;99817.50;;;14.10;50.75
26859;BME280;14429;48.346;16.338;2023-02-22T03:50:52;99813.13;;;13.98;50.76
26859;BME280;14429;48.346;16.338;2023-02-22T03:53:19;99818.22;;;13.58;53.84
26859;BME280;14429;48.346;16.338;2023-02-22T03:55:45;99817.72;;;12.87;57.61
26859;BME280;14429;48.346;16.338;2023-02-22T03:58:12;99831.94;;;12.87;57.59
26859;BME280;14429;48.346;16.338;2023-02-22T04:00:39;99832.63;;;12.55;59.30
26859;BME280;14429;48.346;16.338;2023-02-22T04:03:04;99836.28;;;12.77;56.93
26859;BME280;14429;48.346;16.338;2023-02-22T04:05:30;99830.34;;;13.19;54.24
26859;BME280;14429;48.346;16.338;2023-02-22T04:07:57;99825.91;;;13.07;54.50
26859;BME280;14429;48.346;16.338;2023-02-22T04:10:23;99823.44;;;13.27;53.50
26859;BME280;14429;48.346;16.338;2023-02-22T04:12:48;99816.25;;;13.27;53.68
26859;BME280;14429;48.346;16.338;2023-02-22T04:15:16;99812.56;;;13.18;54.21
26859;BME280;14429;48.346;16.338;2023-02-22T04:17:42;99813.91;;;12.78;57.41
26859;BME280;14429;48.346;16.338;2023-02-22T04:20:09;99813.94;;;12.43;59.43
26859;BME280;14429;48.346;16.338;2023-02-22T04:22:34;99812.88;;;12.22;59.91
26859;BME280;14429;48.346;16.338;2023-02-22T04:25:02;99807.69;;;12.32;59.06
26859;BME280;14429;48.346;16.338;2023-02-22T04:27:27;99811.28;;;12.89;55.28
26859;BME280;14429;48.346;16.338;2023-02-22T04:29:53;99799.44;;;13.36;53.53
26859;BME280;14429;48.346;16.338;2023-02-22T04:32:18;99806.53;;;13.48;53.03
26859;BME280;14429;48.346;16.338;2023-02-22T04:34:44;99803.97;;;12.91;55.76
26859;BME280;14429;48.346;16.338;2023-02-22T04:37:09;99809.34;;;12.45;58.76
26859;BME280;14429;48.346;16.338;2023-02-22T04:39:35;99813.16;;;12.53;58.32
26859;BME280;14429;48.346;16.338;2023-02-22T04:42:01;99800.81;;;12.86;55.27
26859;BME280;14429;48.346;16.338;2023-02-22T04:44:27;99801.63;;;13.20;53.98
26859;BME280;14429;48.346;16.338;2023-02-22T04:46:52;99797.84;;;13.23;53.76
26859;BME280;14429;48.346;16.338;2023-02-22T04:49:18;99806.53;;;13.37;53.14
26859;BME280;14429;48.346;16.338;2023-02-22T04:51:43;99804.09;;;13.45;52.97
26859;BME280;14429;48.346;16.338;2023-02-22T04:54:09;99802.09;;;13.15;54.19
26859;BME280;14429;48.346;16.338;2023-02-22T04:56:34;99809.75;;;12.74;57.14
26859;BME280;14429;48.346;16.338;2023-02-22T04:59:01;99805.66;;;12.92;55.57
26859;BME280;14429;48.346;16.338;2023-02-22T05:01:30;99802.81;;;13.17;53.94
26859;BME280;14429;48.346;16.338;2023-02-22T05:03:55;99798.97;;;13.31;53.44
26859;BME280;14429;48.346;16.338;2023-02-22T05:06:21;99806.78;;;13.45;52.96
26859;BME280;14429;48.346;16.338;2023-02-22T05:08:47;99794.34;;;13.44;52.99
26859;BME280;14429;48.346;16.338;2023-02-22T05:11:13;99797.63;;;13.47;52.69
26859;BME280;14429;48.346;16.338;2023-02-22T05:13:38;99793.50;;;13.54;52.53
26859;BME280;14429;48.346;16.338;2023-02-22T05:16:05;99804.34;;;13.64;52.24
26859;BME280;14429;48.346;16.338;2023-02-22T05:18:31;99794.84;;;13.60;52.28
26859;BME280;14429;48.346;16.338;2023-02-22T05:20:56;99791.28;;;13.70;52.04
26859;BME280;14429;48.346;16.338;2023-02-22T05:23:22;99794.34;;;13.66;52.00
26859;BME280;14429;48.346;16.338;2023-02-22T05:25:47;99791.66;;;13.55;52.58
26859;BME280;14429;48.346;16.338;2023-02-22T05:28:14;99791.66;;;13.55;52.38
26859;BME280;14429;48.346;16.338;2023-02-22T05:30:39;99798.47;;;13.70;51.96
26859;BME280;14429;48.346;16.338;2023-02-22T05:33:07;99791.41;;;13.36;53.43
26859;BME280;14429;48.346;16.338;2023-02-22T05:35:32;99792.53;;;13.34;53.48
26859;BME280;14429;48.346;16.338;2023-02-22T05:37:58;99793.13;;;13.37;52.78
26859;BME280;14429;48.346;16.338;2023-02-22T05:40:25;99795.56;;;13.51;52.35
26859;BME280;14429;48.346;16.338;2023-02-22T05:42:51;99803.59;;;13.51;52.37
26859;BME280;14429;48.346;16.338;2023-02-22T05:45:19;99793.63;;;13.53;52.46
26859;BME280;14429;48.346;16.338;2023-02-22T05:47:45;99798.59;;;13.47;52.87
26859;BME280;14429;48.346;16.338;2023-02-22T05:50:12;99797.78;;;13.57;52.22
26859;BME280;14429;48.346;16.338;2023-02-22T05:52:38;99789.59;;;13.47;53.31
26859;BME280;14429;48.346;16.338;2023-02-22T05:55:04;99798.66;;;13.02;56.45
26859;BME280;14429;48.346;16.338;2023-02-22T05:57:29;99797.63;;;12.92;56.42
26859;BME280;14429;48.346;16.338;2023-02-22T05:59:55;99803.50;;;12.97;54.78
26859;BME280;14429;48.346;16.338;2023-02-22T06:02:21;99806.38;;;12.83;56.46
26859;BME280;14429;48.346;16.338;2023-02-22T06:04:46;99806.31;;;13.06;54.36
26859;BME280;14429;48.346;16.338;2023-02-22T06:07:14;99804.13;;;13.00;55.17
26859;BME280;14429;48.346;16.338;2023-02-22T06:09:39;99806.88;;;12.88;56.35
26859;BME280;14429;48.346;16.338;2023-02-22T06:12:06;99811.50;;;12.86;55.83
26859;BME280;14429;48.346;16.338;2023-02-22T06:14:31;99814.13;;;12.75;56.42
26859;BME280;14429;48.346;16.338;2023-02-22T06:16:57;99817.22;;;12.59;58.60
26859;BME280;14429;48.346;16.338;2023-02-22T06:19:23;99819.03;;;12.81;55.86
26859;BME280;14429;48.346;16.338;2023-02-22T06:21:49;99801.69;;;12.97;54.28
26859;BME280;14429;48.346;16.338;2023-02-22T06:24:16;99805.03;;;13.22;53.45
26859;BME280;14429;48.346;16.338;2023-02-22T06:26:42;99802.63;;;13.30;52.96
26859;BME280;14429;48.346;16.338;2023-02-22T06:29:07;99805.16;;;13.32;53.07
26859;BME280;14429;48.346;16.338;2023-02-22T06:31:33;99811.97;;;13.36;52.85
26859;BME280;14429;48.346;16.338;2023-02-22T06:33:58;99812.56;;;13.28;53.09
26859;BME280;14429;48.346;16.338;2023-02-22T06:36:24;99814.78;;;13.34;52.90
26859;BME280;14429;48.346;16.338;2023-02-22T06:38:49;99812.38;;;13.42;52.57
26859;BME280;14429;48.346;16.338;2023-02-22T06:41:16;99814.31;;;13.51;52.08
26859;BME280;14429;48.346;16.338;2023-02-22T06:43:41;99817.84;;;13.51;52.21
26859;BME280;14429;48.346;16.338;2023-02-22T06:46:09;99816.03;;;13.63;51.93
26859;BME280;14429;48.346;16.338;2023-02-22T06:48:35;99816.53;;;13.57;52.03
26859;BME280;14429;48.346;16.338;2023-02-22T06:51:01;99821.03;;;13.56;51.93
26859;BME280;14429;48.346;16.338;2023-02-22T06:53:26;99818.97;;;13.60;51.80
26859;BME280;14429;48.346;16.338;2023-02-22T06:55:52;99816.03;;;13.63;51.90
26859;BME280;14429;48.346;16.338;2023-02-22T06:58:19;99818.59;;;13.64;51.76
26859;BME280;14429;48.346;16.338;2023-02-22T07:00:45;99821.88;;;13.68;51.55
26859;BME280;14429;48.346;16.338;2023-02-22T07:03:10;99819.94;;;13.70;51.73
26859;BME280;14429;48.346;16.338;2023-02-22T07:05:36;99813.72;;;13.69;51.59
26859;BME280;14429;48.346;16.338;2023-02-22T07:08:03;99814.84;;;13.67;51.65
26859;BME280;14429;48.346;16.338;2023-02-22T07:10:31;99814.94;;;13.65;51.52
26859;BME280;14429;48.346;16.338;2023-02-22T07:12:57;99827.47;;;13.65;51.62
26859;BME280;14429;48.346;16.338;2023-02-22T07:15:25;99822.59;;;13.59;51.62
26859;BME280;14429;48.346;16.338;2023-02-22T07:17:51;99815.78;;;13.55;52.12
26859;BME280;14429;48.346;16.338;2023-02-22T07:20:17;99816.53;;;13.57;51.77
26859;BME280;14429;48.346;16.338;2023-02-22T07:22:42;99810.41;;;13.66;51.48
26859;BME280;14429;48.346;16.338;2023-02-22T07:25:09;99809.47;;;13.67;51.43
26859;BME280;14429;48.346;16.338;2023-02-22T07:27:35;99813.84;;;13.68;51.56
26859;BME280;14429;48.346;16.338;2023-02-22T07:30:00;99815.78;;;13.66;51.79
26859;BME280;14429;48.346;16.338;2023-02-22T07:32:27;99826.47;;;13.22;57.69
26859;BME280;14429;48.346;16.338;2023-02-22T07:34:52;99825.03;;;12.95;58.73
26859;BME280;14429;48.346;16.338;2023-02-22T07:37:18;99812.47;;;13.30;53.20
26859;BME280;14429;48.346;16.338;2023-02-22T07:39:43;99815.97;;;13.20;57.29
26859;BME280;14429;48.346;16.338;2023-02-22T07:42:08;99816.69;;;13.11;57.87
26859;BME280;14429;48.346;16.338;2023-02-22T07:44:34;99820.06;;;13.02;57.27
26859;BME280;14429;48.346;16.338;2023-02-22T07:46:59;99817.16;;;13.05;56.51
26859;BME280;14429;48.346;16.338;2023-02-22T07:49:26;99816.94;;;13.08;56.92
26859;BME280;14429;48.346;16.338;2023-02-22T07:51:51;99824.69;;;13.00;55.89
26859;BME280;14429;48.346;16.338;2023-02-22T07:54:17;99816.41;;;13.03;56.71
26859;BME280;14429;48.346;16.338;2023-02-22T07:56:46;99824.13;;;12.84;59.57
26859;BME280;14429;48.346;16.338;2023-02-22T07:59:12;99827.16;;;12.80;58.76
26859;BME280;14429;48.346;16.338;2023-02-22T08:01:37;99826.53;;;12.76;59.59
26859;BME280;14429;48.346;16.338;2023-02-22T08:04:03;99827.44;;;12.65;60.12
26859;BME280;14429;48.346;16.338;2023-02-22T08:06:30;99823.78;;;12.65;60.12
26859;BME280;14429;48.346;16.338;2023-02-22T08:08:55;99821.41;;;12.73;58.42
26859;BME280;14429;48.346;16.338;2023-02-22T08:11:21;99828.34;;;12.53;61.10
26859;BME280;14429;48.346;16.338;2023-02-22T08:13:46;99824.13;;;12.61;60.54
26859;BME280;14429;48.346;16.338;2023-02-22T08:16:12;99830.59;;;12.59;61.22
26859;BME280;14429;48.346;16.338;2023-02-22T08:18:37;99819.03;;;12.81;58.24
26859;BME280;14429;48.346;16.338;2023-02-22T08:21:03;99824.47;;;12.57;60.84
26859;BME280;14429;48.346;16.338;2023-02-22T08:23:29;99821.03;;;12.44;61.48
26859;BME280;14429;48.346;16.338;2023-02-22T08:25:55;99825.25;;;12.23;62.66
26859;BME280;14429;48.346;16.338;2023-02-22T08:28:22;99829.72;;;12.35;62.23
26859;BME280;14429;48.346;16.338;2023-02-22T08:30:48;99821.25;;;12.41;62.08
26859;BME280;14429;48.346;16.338;2023-02-22T08:33:15;99830.63;;;12.46;61.90
26859;BME280;14429;48.346;16.338;2023-02-22T08:35:41;99819.88;;;12.59;60.45
26859;BME280;14429;48.346;16.338;2023-02-22T08:38:13;99815.75;;;12.65;58.91
26859;BME280;14429;48.346;16.338;2023-02-22T08:40:40;99820.97;;;12.79;58.96
26859;BME280;14429;48.346;16.338;2023-02-22T08:43:06;99829.97;;;12.78;60.37
26859;BME280;14429;48.346;16.338;2023-02-22T08:45:31;99828.28;;;12.77;60.88
26859;BME280;14429;48.346;16.338;2023-02-22T08:47:57;99829.44;;;12.73;60.97
26859;BME280;14429;48.346;16.338;2023-02-22T08:50:24;99829.00;;;12.79;60.99
26859;BME280;14429;48.346;16.338;2023-02-22T08:52:50;99824.38;;;12.81;61.18
26859;BME280;14429;48.346;16.338;2023-02-22T08:55:18;99825.88;;;12.85;60.80
26859;BME280;14429;48.346;16.338;2023-02-22T08:57:45;99829.03;;;12.90;60.74
26859;BME280;14429;48.346;16.338;2023-02-22T09:00:12;99830.06;;;13.00;60.43
26859;BME280;14429;48.346;16.338;2023-02-22T09:02:37;99812.44;;;13.08;57.99
26859;BME280;14429;48.346;16.338;2023-02-22T09:05:03;99821.56;;;13.17;59.32
26859;BME280;14429;48.346;16.338;2023-02-22T09:07:28;99825.00;;;13.19;60.01
26859;BME280;14429;48.346;16.338;2023-02-22T09:09:54;99823.44;;;13.27;59.18
26859;BME280;14429;48.346;16.338;2023-02-22T09:12:19;99825.50;;;13.34;57.61
26859;BME280;14429;48.346;16.338;2023-02-22T09:14:46;99820.88;;;13.47;54.52
26859;BME280;14429;48.346;16.338;2023-02-22T09:17:11;99823.34;;;13.50;54.27
26859;BME280;14429;48.346;16.338;2023-02-22T09:19:37;99820.19;;;13.56;53.61
26859;BME280;14429;48.346;16.338;2023-02-22T09:22:02;99817.00;;;13.62;53.24
26859;BME280;14429;48.346;16.338;2023-02-22T09:24:28;99817.50;;;13.67;53.00
26859;BME280;14429;48.346;16.338;2023-02-22T09:26:53;99814.31;;;13.83;54.82
26859;BME280;14429;48.346;16.338;2023-02-22T09:29:20;99819.44;;;13.86;53.53
26859;BME280;14429;48.346;16.338;2023-02-22T09:31:47;99813.00;;;14.00;52.97
26859;BME280;14429;48.346;16.338;2023-02-22T09:34:14;99808.38;;;14.02;51.82
26859;BME280;14429;48.346;16.338;2023-02-22T09:36:40;99816.50;;;14.11;50.86
26859;BME280;14429;48.346;16.338;2023-02-22T09:39:05;99803.72;;;14.14;51.01
26859;BME280;14429;48.346;16.338;2023-02-22T09:41:35;99820.84;;;14.33;50.39
26859;BME280;14429;48.346;16.338;2023-02-22T09:44:14;99810.66;;;14.28;50.93
26859;BME280;14429;48.346;16.338;2023-02-22T09:46:42;99802.81;;;14.35;51.35
26859;BME280;14429;48.346;16.338;2023-02-22T09:49:17;99804.03;;;14.42;51.07
26859;BME280;14429;48.346;16.338;2023-02-22T09:51:48;99805.72;;;14.43;50.50
26859;BME280;14429;48.346;16.338;2023-02-22T09:54:20;99798.72;;;14.52;51.21
26859;BME280;14429;48.346;16.338;2023-02-22T09:56:47;99801.59;;;14.39;51.20
26859;BME280;14429;48.346;16.338;2023-02-22T09:59:17;99791.84;;;14.38;51.02
26859;BME280;14429;48.346;16.338;2023-02-22T10:01:47;99797.28;;;14.48;51.10
26859;BME280;14429;48.346;16.338;2023-02-22T10:04:18;99796.19;;;14.50;50.80
26859;BME280;14429;48.346;16.338;2023-02-22T10:06:56;99795.59;;;14.47;50.91
26859;BME280;14429;48.346;16.338;2023-02-22T10:09:25;99792.78;;;14.48;50.26
26859;BME280;14429;48.346;16.338;2023-02-22T10:11:57;99785.22;;;14.53;50.51
26859;BME280;14429;48.346;16.338;2023-02-22T10:14:43;99787.16;;;14.51;50.65
26859;BME280;14429;48.346;16.338;2023-02-22T10:17:19;99782.38;;;14.55;50.23
26859;BME280;14429;48.346;16.338;2023-02-22T10:20:02;99781.19;;;14.48;50.84
26859;BME280;14429;48.346;16.338;2023-02-22T10:22:40;99787.41;;;14.48;50.38
26859;BME280;14429;48.346;16.338;2023-02-22T10:25:10;99781.53;;;14.54;50.26
26859;BME280;14429;48.346;16.338;2023-02-22T10:27:39;99776.78;;;14.57;50.44
26859;BME280;14429;48.346;16.338;2023-02-22T10:30:15;99776.91;;;14.56;50.45
26859;BME280;14429;48.346;16.338;2023-02-22T10:32:43;99775.72;;;14.49;50.46
26859;BME280;14429;48.346;16.338;2023-02-22T10:35:19;99771.78;;;14.53;50.21
26859;BME280;14429;48.346;16.338;2023-02-22T10:37:45;99769.59;;;14.47;50.51
26859;BME280;14429;48.346;16.338;2023-02-22T10:40:13;99770.03;;;14.63;50.98
26859;BME280;14429;48.346;16.338;2023-02-22T10:42:39;99770.91;;;14.83;50.04
26859;BME280;14429;48.346;16.338;2023-02-22T10:45:13;99763.13;;;14.81;49.93
26859;BME280;14429;48.346;16.338;2023-02-22T10:47:42;99762.56;;;15.17;50.44
26859;BME280;14429;48.346;16.338;2023-02-22T10:50:12;99756.16;;;15.09;51.17
26859;BME280;14429;48.346;16.338;2023-02-22T10:52:39;99751.78;;;15.37;50.43
26859;BME280;14429;48.346;16.338;2023-02-22T10:55:05;99757.56;;;15.33;50.43
26859;BME280;14429;48.346;16.338;2023-02-22T10:57:33;99743.19;;;15.43;49.50
26859;BME280;14429;48.346;16.338;2023-02-22T11:00:13;99743.47;;;15.40;50.45
26859;BME280;14429;48.346;16.338;2023-02-22T11:02:49;99743.47;;;15.40;49.52
26859;BME280;14429;48.346;16.338;2023-02-22T11:05:26;99734.97;;;15.36;49.25
26859;BME280;14429;48.346;16.338;2023-02-22T11:08:13;99723.41;;;15.44;49.22
26859;BME280;14429;48.346;16.338;2023-02-22T11:10:39;99732.28;;;15.36;48.83
26859;BME280;14429;48.346;16.338;2023-02-22T11:13:15;99727.91;;;15.35;48.34
26859;BME280;14429;48.346;16.338;2023-02-22T11:15:41;99725.53;;;15.21;48.89
26859;BME280;14429;48.346;16.338;2023-02-22T11:18:22;99734.63;;;15.29;48.84
26859;BME280;14429;48.346;16.338;2023-02-22T11:20:48;99714.91;;;14.99;48.65
26859;BME280;14429;48.346;16.338;2023-02-22T11:23:19;99723.78;;;15.10;49.62
26859;BME280;14429;48.346;16.338;2023-02-22T11:25:46;99715.91;;;14.98;49.49
26859;BME280;14429;48.346;16.338;2023-02-22T11:28:16;99723.09;;;15.09;50.42
26859;BME280;14429;48.346;16.338;2023-02-22T11:30:45;99715.31;;;15.15;50.52
26859;BME280;14429;48.346;16.338;2023-02-22T11:33:17;99710.09;;;14.93;49.07
26859;BME280;14429;48.346;16.338;2023-02-22T11:35:49;99706.41;;;14.94;50.55
26859;BME280;14429;48.346;16.338;2023-02-22T11:38:19;99704.56;;;15.15;50.42
26859;BME280;14429;48.346;16.338;2023-02-22T11:40:46;99698.69;;;15.21;49.91
26859;BME280;14429;48.346;16.338;2023-02-22T11:43:27;99700.06;;;15.15;49.66
26859;BME280;14429;48.346;16.338;2023-02-22T11:45:59;99703.13;;;15.11;50.60
26859;BME280;14429;48.346;16.338;2023-02-22T11:48:28;99708.81;;;15.08;50.70
26859;BME280;14429;48.346;16.338;2023-02-22T11:50:58;99698.53;;;15.02;50.25
26859;BME280;14429;48.346;16.338;2023-02-22T11:53:39;99688.63;;;14.93;50.20
26859;BME280;14429;48.346;16.338;2023-02-22T11:56:15;99685.72;;;14.85;50.76
26859;BME280;14429;48.346;16.338;2023-02-22T11:58:44;99690.53;;;14.82;51.10
26859;BME280;14429;48.346;16.338;2023-02-22T12:01:19;99685.81;;;14.75;51.46
26859;BME280;14429;48.346;16.338;2023-02-22T12:04:10;99692.63;;;14.79;51.65
26859;BME280;14429;48.346;16.338;2023-02-22T12:06:47;99682.50;;;14.91;51.60
26859;BME280;14429;48.346;16.338;2023-02-22T12:09:21;99681.50;;;14.92;51.24
26859;BME280;14429;48.346;16.338;2023-02-22T12:11:57;99683.75;;;14.87;50.29
26859;BME280;14429;48.346;16.338;2023-02-22T12:14:28;99678.38;;;14.87;50.32
26859;BME280;14429;48.346;16.338;2023-02-22T12:17:08;99670.78;;;14.92;50.59
26859;BME280;14429;48.346;16.338;2023-02-22T12:19:37;99665.66;;;14.89;49.86
26859;BME280;14429;48.346;16.338;2023-02-22T12:22:06;99675.88;;;14.95;49.11
26859;BME280;14429;48.346;16.338;2023-02-22T12:24:37;99664.88;;;14.98;48.68
26859;BME280;14429;48.346;16.338;2023-02-22T12:27:07;99665.72;;;14.99;48.63
26859;BME280;14429;48.346;16.338;2023-02-22T12:29:36;99662.59;;;14.94;48.94
26859;BME280;14429;48.346;16.338;2023-02-22T12:32:06;99667.38;;;14.90;49.79
26859;BME280;14429;48.346;16.338;2023-02-22T12:34:37;99656.91;;;14.87;49.80
26859;BME280;14429;48.346;16.338;2023-02-22T12:37:10;99666.91;;;14.85;49.61
26859;BME280;14429;48.346;16.338;2023-02-22T12:39:46;99661.34;;;14.78;49.08
26859;BME280;14429;48.346;16.338;2023-02-22T12:42:17;99649.19;;;14.74;49.07
26859;BME280;14429;48.346;16.338;2023-02-22T12:44:50;99652.59;;;14.76;49.92
26859;BME280;14429;48.346;16.338;2023-02-22T12:47:20;99650.38;;;14.81;49.95
26859;BME280;14429;48.346;16.338;2023-02-22T12:49:51;99641.59;;;14.79;49.88
26859;BME280;14429;48.346;16.338;2023-02-22T12:52:31;99641.59;;;14.79;50.04
26859;BME280;14429;48.346;16.338;2023-02-22T12:55:08;99642.13;;;14.73;48.94
26859;BME280;14429;48.346;16.338;2023-02-22T12:57:39;99638.38;;;14.84;48.40
26859;BME280;14429;48.346;16.338;2023-02-22T13:00:14;99635.44;;;14.87;48.02
26859;BME280;14429;48.346;16.338;2023-02-22T13:02:43;99631.22;;;14.94;47.85